Time;durP1;ratioP1;P1;durP2;ratioP2;P2;SDS_P1;SDS_P2;PMS_P1;PMS_P2;Temp;Humidity;BMP_temperature;BMP_pressure;BME280_temperature;BME280_humidity;BME280_pressure;Samples;Min_cycle;Max_cycle;Signal;HPM_P1;HPM_P2
2022/06/23 00:01:47;;;;;;;2.42;1.60;;;25.40;80.10;;;;;;5047562;28;20303;-38
2022/06/23 00:04:20;;;;;;;1.38;1.20;;;25.40;80.10;;;;;;5049077;28;20290;-37
2022/06/23 00:06:58;;;;;;;2.67;1.42;;;25.40;80.30;;;;;;5048704;28;20335;-36
2022/06/23 00:09:38;;;;;;;4.85;1.75;;;25.30;80.20;;;;;;5048811;28;20211;-37
2022/06/23 00:12:20;;;;;;;4.25;1.40;;;25.30;80.00;;;;;;5049055;28;20231;-38
2022/06/23 00:15:07;;;;;;;1.80;1.40;;;25.30;80.10;;;;;;5048833;28;20241;-37
2022/06/23 00:17:44;;;;;;;2.13;1.50;;;25.30;80.80;;;;;;5019322;28;20236;-37
2022/06/23 00:20:19;;;;;;;1.75;1.55;;;25.20;80.10;;;;;;5052117;28;20210;-37
2022/06/23 00:23:00;;;;;;;2.72;1.50;;;25.20;80.20;;;;;;5059638;28;20286;-50
2022/06/23 00:25:31;;;;;;;3.00;1.40;;;25.10;80.10;;;;;;5048444;28;20200;-38
2022/06/23 00:28:01;;;;;;;3.47;1.50;;;25.10;80.20;;;;;;5048444;28;20595;-37
2022/06/23 00:30:36;;;;;;;1.55;1.30;;;25.00;80.10;;;;;;5048674;28;20224;-37
2022/06/23 00:33:23;;;;;;;2.72;1.73;;;25.00;80.20;;;;;;5048903;28;20248;-37
2022/06/23 00:35:54;;;;;;;3.70;1.58;;;25.00;80.20;;;;;;5048425;28;20204;-37
2022/06/23 00:38:37;;;;;;;4.75;1.67;;;24.90;80.20;;;;;;5049022;28;20212;-37
2022/06/23 00:41:20;;;;;;;1.80;1.42;;;24.90;80.20;;;;;;5048320;28;20200;-37
2022/06/23 00:43:52;;;;;;;3.53;2.00;;;24.80;80.10;;;;;;5047626;28;20287;-37
2022/06/23 00:46:24;;;;;;;2.72;1.58;;;24.80;80.20;;;;;;5047531;28;20238;-37
2022/06/23 00:49:01;;;;;;;2.13;1.40;;;24.70;80.10;;;;;;5048710;28;20192;-38
2022/06/23 00:51:39;;;;;;;4.53;1.70;;;24.70;80.10;;;;;;5048122;28;20223;-37
2022/06/23 00:54:21;;;;;;;3.40;1.30;;;24.60;80.10;;;;;;5048407;28;20204;-37
2022/06/23 00:56:58;;;;;;;1.88;1.60;;;24.60;80.30;;;;;;5049023;28;20306;-37
2022/06/23 00:59:36;;;;;;;2.53;1.50;;;24.50;80.20;;;;;;5047603;28;20215;-37
2022/06/23 01:02:16;;;;;;;2.05;1.60;;;24.50;80.20;;;;;;5046845;28;20569;-38
2022/06/23 01:04:53;;;;;;;2.80;1.75;;;24.50;80.30;;;;;;5047842;28;20569;-37
2022/06/23 01:07:53;;;;;;;1.60;1.45;;;24.40;80.20;;;;;;5048676;28;20690;-37
2022/06/23 01:10:37;;;;;;;3.03;1.60;;;24.40;80.20;;;;;;5063296;28;20207;-37
2022/06/23 01:13:27;;;;;;;3.78;1.50;;;24.40;80.40;;;;;;5047698;28;20200;-37
2022/06/23 01:16:20;;;;;;;2.15;1.55;;;24.30;80.40;;;;;;5062006;28;20325;-37
2022/06/23 01:18:52;;;;;;;2.17;1.40;;;24.30;80.70;;;;;;5034132;28;20860;-38
2022/06/23 01:21:38;;;;;;;3.72;1.70;;;24.20;80.70;;;;;;5047914;28;20566;-38
2022/06/23 01:24:28;;;;;;;3.42;2.03;;;24.10;80.30;;;;;;5039767;28;20240;-37
2022/06/23 01:27:35;;;;;;;3.33;1.90;;;24.10;80.40;;;;;;5048216;28;20779;-38
2022/06/23 01:30:13;;;;;;;2.63;1.92;;;24.10;80.50;;;;;;5047838;28;20216;-38
2022/06/23 01:32:50;;;;;;;2.95;1.80;;;24.00;80.60;;;;;;5045445;28;20749;-38
2022/06/23 01:35:41;;;;;;;3.90;1.88;;;24.00;80.50;;;;;;5047484;28;20253;-38
2022/06/23 01:38:23;;;;;;;3.33;1.80;;;24.00;80.60;;;;;;5048450;28;20212;-38
2022/06/23 01:41:00;;;;;;;2.00;1.77;;;24.00;80.70;;;;;;5045710;28;20271;-38
2022/06/23 01:43:59;;;;;;;1.55;1.33;;;23.90;80.60;;;;;;5048112;28;20228;-38
2022/06/23 01:46:34;;;;;;;3.10;1.67;;;23.90;80.60;;;;;;5031158;28;20373;-38
2022/06/23 01:49:32;;;;;;;2.25;1.60;;;23.90;80.60;;;;;;5034099;28;20204;-38
2022/06/23 01:52:10;;;;;;;1.90;1.48;;;23.90;80.60;;;;;;5047332;28;20307;-38
2022/06/23 01:54:42;;;;;;;2.75;1.83;;;23.90;80.70;;;;;;5045361;28;20848;-37
2022/06/23 01:57:11;;;;;;;2.45;1.50;;;23.80;80.60;;;;;;5048329;28;20267;-38
2022/06/23 01:59:47;;;;;;;2.15;1.63;;;23.80;80.70;;;;;;5048361;28;20219;-38
2022/06/23 02:02:21;;;;;;;2.30;1.98;;;23.80;80.70;;;;;;5040608;28;20573;-38
2022/06/23 02:05:11;;;;;;;2.78;1.75;;;23.80;80.70;;;;;;5031494;28;20201;-38
2022/06/23 02:07:43;;;;;;;2.88;1.70;;;23.80;80.80;;;;;;5046838;28;20193;-43
2022/06/23 02:10:44;;;;;;;2.00;1.80;;;23.80;80.80;;;;;;5031551;28;20689;-38
2022/06/23 02:13:23;;;;;;;2.65;1.67;;;23.80;81.00;;;;;;5049105;28;20243;-38
2022/06/23 02:16:18;;;;;;;3.15;1.70;;;23.70;80.80;;;;;;5048907;28;20218;-38
2022/06/23 02:18:48;;;;;;;2.70;1.88;;;23.80;81.00;;;;;;5059413;28;20228;-38
2022/06/23 02:21:35;;;;;;;2.85;1.67;;;23.70;80.90;;;;;;5062892;28;20662;-38
2022/06/23 02:24:14;;;;;;;6.13;1.90;;;23.70;81.00;;;;;;5070694;28;20215;-38
2022/06/23 02:27:01;;;;;;;5.75;2.03;;;23.70;81.10;;;;;;5071148;28;20286;-38
2022/06/23 02:29:32;;;;;;;3.03;1.67;;;23.70;81.00;;;;;;5052672;28;20219;-37
2022/06/23 02:32:17;;;;;;;3.55;1.65;;;23.70;81.00;;;;;;5039186;28;20577;-40
2022/06/23 02:35:18;;;;;;;2.83;1.90;;;23.70;81.00;;;;;;5030982;28;20391;-38
2022/06/23 02:38:08;;;;;;;3.67;2.08;;;23.60;80.90;;;;;;5029227;28;20596;-37
2022/06/23 02:40:47;;;;;;;1.88;1.73;;;23.60;80.90;;;;;;5045739;28;20225;-37
2022/06/23 02:43:25;;;;;;;2.75;1.77;;;23.60;80.90;;;;;;5050305;28;20314;-38
2022/06/23 02:46:25;;;;;;;3.13;2.03;;;23.60;81.00;;;;;;5054688;28;20258;-35
2022/06/23 02:49:32;;;;;;;5.40;2.25;;;23.50;81.20;;;;;;5040887;28;20244;-34
2022/06/23 02:52:32;;;;;;;6.43;2.00;;;23.50;81.10;;;;;;5050560;28;20235;-34
2022/06/23 02:55:38;;;;;;;3.10;1.73;;;23.50;81.20;;;;;;5049873;28;20206;-34
2022/06/23 02:58:27;;;;;;;6.22;2.28;;;23.50;81.30;;;;;;5048733;28;20247;-34
2022/06/23 03:01:01;;;;;;;3.55;2.42;;;23.40;81.30;;;;;;5048875;28;20208;-35
2022/06/23 03:03:42;;;;;;;2.20;2.00;;;23.40;81.20;;;;;;5050549;28;20200;-35
2022/06/23 03:06:48;;;;;;;3.40;2.22;;;23.30;81.30;;;;;;5049972;28;20224;-34
2022/06/23 03:09:41;;;;;;;2.60;2.30;;;23.30;81.30;;;;;;5036456;28;20216;-34
2022/06/23 03:12:20;;;;;;;6.57;2.53;;;23.30;81.40;;;;;;5050468;28;20285;-34
2022/06/23 03:15:03;;;;;;;2.42;2.00;;;23.30;81.40;;;;;;5049318;28;20230;-34
2022/06/23 03:17:33;;;;;;;2.58;1.75;;;23.30;82.10;;;;;;5068804;28;20218;-34
2022/06/23 03:20:39;;;;;;;4.93;2.20;;;23.20;81.20;;;;;;5055165;28;20708;-34
2022/06/23 03:23:15;;;;;;;5.43;1.95;;;23.20;81.30;;;;;;5036815;28;20250;-34
2022/06/23 03:26:13;;;;;;;5.35;2.30;;;23.20;81.30;;;;;;5029375;28;20263;-35
2022/06/23 03:29:24;;;;;;;3.40;2.22;;;23.20;81.40;;;;;;5014715;28;20219;-34
2022/06/23 03:32:06;;;;;;;3.40;1.80;;;23.20;81.60;;;;;;5029609;28;20248;-34
2022/06/23 03:34:49;;;;;;;5.45;2.60;;;23.20;81.90;;;;;;5029444;28;20584;-34
2022/06/23 03:37:33;;;;;;;5.32;2.28;;;23.20;81.60;;;;;;5045439;28;20572;-34
2022/06/23 03:43:18;;;;;;;4.60;2.10;;;23.20;81.60;;;;;;5049605;28;20208;-34
2022/06/23 03:46:03;;;;;;;2.92;2.20;;;23.10;81.70;;;;;;5055729;28;20203;-34
2022/06/23 03:48:39;;;;;;;4.28;2.35;;;23.10;81.70;;;;;;5062269;28;20196;-34
2022/06/23 03:51:40;;;;;;;4.03;2.40;;;23.10;81.80;;;;;;5048751;28;20658;-37
2022/06/23 03:54:25;;;;;;;4.38;2.10;;;23.10;81.90;;;;;;5048871;28;20208;-37
2022/06/23 03:57:10;;;;;;;6.18;2.50;;;23.10;82.00;;;;;;5049334;28;20254;-38
2022/06/23 03:59:59;;;;;;;3.95;2.38;;;23.10;82.10;;;;;;5048403;28;20208;-38
2022/06/23 04:02:32;;;;;;;3.90;2.30;;;23.10;82.20;;;;;;5049124;28;20837;-38
2022/06/23 04:05:12;;;;;;;5.30;2.20;;;23.10;82.00;;;;;;5044499;28;20227;-37
2022/06/23 04:07:51;;;;;;;2.63;2.00;;;23.10;82.10;;;;;;5049752;28;20247;-38
2022/06/23 04:10:39;;;;;;;4.18;1.90;;;23.10;82.20;;;;;;5051949;28;20212;-37
2022/06/23 04:13:27;;;;;;;2.28;2.00;;;23.20;82.30;;;;;;5049446;28;20204;-38
2022/06/23 04:16:00;;;;;;;5.88;2.22;;;23.20;82.50;;;;;;5049500;28;20232;-35
2022/06/23 04:18:31;;;;;;;3.28;2.20;;;23.20;82.40;;;;;;5049446;28;20612;-37
2022/06/23 04:21:01;;;;;;;5.82;2.30;;;23.20;82.50;;;;;;5048978;28;20205;-37
2022/06/23 04:23:58;;;;;;;3.78;2.28;;;23.20;82.50;;;;;;5049318;28;20197;-36
2022/06/23 04:26:31;;;;;;;3.65;2.67;;;23.20;82.80;;;;;;5046340;28;20208;-36
2022/06/23 04:29:28;;;;;;;2.95;2.10;;;23.20;82.80;;;;;;5049032;28;20208;-36
2022/06/23 04:32:19;;;;;;;7.35;2.45;;;23.30;82.90;;;;;;5049094;28;20277;-37
2022/06/23 04:35:09;;;;;;;3.58;2.10;;;23.30;83.20;;;;;;5048646;28;20196;-37
2022/06/23 04:37:40;;;;;;;3.22;2.20;;;23.30;83.10;;;;;;5048830;28;20236;-37
2022/06/23 04:40:30;;;;;;;5.00;2.17;;;23.30;83.10;;;;;;5048608;28;20200;-37
2022/06/23 04:43:14;;;;;;;3.40;1.85;;;23.30;83.10;;;;;;5038249;28;20204;-37
2022/06/23 04:45:56;;;;;;;2.88;1.88;;;23.40;83.30;;;;;;5048816;28;20222;-37
2022/06/23 04:48:40;;;;;;;3.38;2.13;;;23.40;83.30;;;;;;5045619;28;20208;-37
2022/06/23 04:51:15;;;;;;;2.92;2.30;;;23.40;83.30;;;;;;5028328;28;20232;-36
2022/06/23 04:53:52;;;;;;;4.40;2.42;;;23.40;83.30;;;;;;5028959;28;20200;-37
2022/06/23 04:56:35;;;;;;;4.07;2.35;;;23.50;83.50;;;;;;5028397;28;20204;-37
2022/06/23 04:59:25;;;;;;;4.90;2.60;;;23.50;83.50;;;;;;5043938;28;20204;-37
2022/06/23 05:01:57;;;;;;;2.92;2.15;;;23.50;83.70;;;;;;5047295;28;20232;-37
2022/06/23 05:04:45;;;;;;;4.18;2.25;;;23.50;83.80;;;;;;5042658;28;20239;-37
2022/06/23 05:07:25;;;;;;;3.67;2.30;;;23.60;84.10;;;;;;5056855;28;20235;-36
2022/06/23 05:09:58;;;;;;;2.80;2.20;;;23.70;84.30;;;;;;5052956;28;20610;-37
2022/06/23 05:12:33;;;;;;;6.05;2.78;;;23.70;84.30;;;;;;5047790;28;20224;-37
2022/06/23 05:15:15;;;;;;;6.88;3.28;;;23.70;84.40;;;;;;5047827;28;20208;-36
2022/06/23 05:18:20;;;;;;;13.90;3.70;;;23.80;84.50;;;;;;5046894;28;20303;-36
2022/06/23 05:20:59;;;;;;;9.10;3.17;;;23.80;84.80;;;;;;5047746;28;20257;-36
2022/06/23 05:23:38;;;;;;;9.55;3.40;;;23.90;84.90;;;;;;5048143;28;20196;-36
2022/06/23 05:26:31;;;;;;;15.63;3.97;;;23.90;85.10;;;;;;5047475;28;20202;-36
2022/06/23 05:29:03;;;;;;;29.05;6.10;;;24.00;85.30;;;;;;5047528;28;20224;-36
2022/06/23 05:31:37;;;;;;;11.48;3.83;;;24.00;85.40;;;;;;5047482;28;20226;-36
2022/06/23 05:34:31;;;;;;;8.77;3.78;;;24.10;85.60;;;;;;5047615;28;20203;-36
2022/06/23 05:37:09;;;;;;;6.45;3.78;;;24.20;85.90;;;;;;5043100;28;20718;-36
2022/06/23 05:39:51;;;;;;;10.32;3.72;;;24.30;86.30;;;;;;5049966;28;20573;-37
2022/06/23 05:42:29;;;;;;;10.35;4.25;;;24.40;86.70;;;;;;5050806;28;20200;-36
2022/06/23 05:45:04;;;;;;;8.30;4.20;;;24.50;87.00;;;;;;5052059;28;20266;-36
2022/06/23 05:47:35;;;;;;;9.35;3.85;;;24.50;87.00;;;;;;5051813;28;20203;-36
2022/06/23 05:50:08;;;;;;;12.15;4.05;;;24.60;87.20;;;;;;5047588;28;20220;-37
2022/06/23 05:53:04;;;;;;;9.93;4.03;;;24.70;87.50;;;;;;5050976;28;20285;-37
2022/06/23 05:55:48;;;;;;;5.72;3.78;;;24.70;87.70;;;;;;5041547;28;20690;-36
2022/06/23 05:58:51;;;;;;;6.72;4.05;;;24.80;88.10;;;;;;5041231;28;20260;-37
2022/06/23 06:01:31;;;;;;;6.03;4.57;;;24.90;88.20;;;;;;5035511;28;20250;-36
2022/06/23 06:04:06;;;;;;;7.25;3.45;;;25.00;88.60;;;;;;5042449;28;20238;-37
2022/06/23 06:06:36;;;;;;;7.72;4.30;;;25.00;88.80;;;;;;5044751;28;20227;-37
2022/06/23 06:11:59;;;;;;;12.45;5.03;;;25.20;89.30;;;;;;5049867;28;20631;-37
2022/06/23 06:14:35;;;;;;;9.93;5.03;;;25.20;89.50;;;;;;5041837;28;20278;-36
2022/06/23 06:17:15;;;;;;;13.95;4.65;;;25.30;89.70;;;;;;5041198;28;20200;-36
2022/06/23 06:19:46;;;;;;;6.28;4.70;;;25.40;90.40;;;;;;5038022;28;20227;-36
2022/06/23 06:22:31;;;;;;;7.78;4.45;;;25.50;90.20;;;;;;5048269;28;20212;-36
2022/06/23 06:25:04;;;;;;;9.77;4.82;;;25.60;90.50;;;;;;5048144;28;20213;-36
2022/06/23 06:27:32;;;;;;;9.75;5.15;;;25.60;90.50;;;;;;5046385;28;20306;-36
2022/06/23 06:30:03;;;;;;;11.52;4.97;;;25.70;90.50;;;;;;5047414;28;20204;-36
2022/06/23 06:32:35;;;;;;;7.70;4.25;;;25.80;90.70;;;;;;5043574;28;20706;-36
2022/06/23 06:35:14;;;;;;;12.80;4.60;;;25.90;90.80;;;;;;5042959;28;20762;-37
2022/06/23 06:38:00;;;;;;;9.48;4.60;;;26.00;90.90;;;;;;5046170;28;20720;-36
2022/06/23 06:40:28;;;;;;;11.55;5.13;;;26.00;91.10;;;;;;5060659;28;20196;-37
2022/06/23 06:42:59;;;;;;;14.27;6.20;;;26.10;91.20;;;;;;5041676;28;20258;-37
2022/06/23 06:45:31;;;;;;;14.00;4.65;;;26.10;91.30;;;;;;5048986;28;20315;-37
2022/06/23 06:48:05;;;;;;;8.82;5.10;;;26.20;91.30;;;;;;5046679;28;20690;-37
2022/06/23 06:50:44;;;;;;;9.13;4.60;;;26.30;91.50;;;;;;5044605;28;20299;-37
2022/06/23 06:53:26;;;;;;;7.88;5.10;;;26.40;91.60;;;;;;5047307;28;20251;-37
2022/06/23 06:56:03;;;;;;;7.13;4.65;;;26.40;91.70;;;;;;5041646;28;20206;-37
2022/06/23 06:59:16;;;;;;;7.85;4.70;;;26.50;91.70;;;;;;5068013;28;20212;-37
2022/06/23 07:01:59;;;;;;;9.48;4.70;;;26.50;92.00;;;;;;5042291;28;20219;-37
2022/06/23 07:04:38;;;;;;;10.65;4.53;;;26.60;92.00;;;;;;5047616;28;20204;-33
2022/06/23 07:07:12;;;;;;;10.90;4.85;;;26.70;92.00;;;;;;5041919;28;20703;-33
2022/06/23 07:09:57;;;;;;;10.48;5.13;;;26.70;92.10;;;;;;5045606;28;20737;-33
2022/06/23 07:12:33;;;;;;;8.35;4.72;;;26.80;92.20;;;;;;5039358;28;20290;-33
2022/06/23 07:15:20;;;;;;;7.45;4.55;;;26.80;92.20;;;;;;5046090;28;20227;-33
2022/06/23 07:17:57;;;;;;;12.00;5.35;;;26.90;92.50;;;;;;5039826;28;20206;-33
2022/06/23 07:20:41;;;;;;;9.98;4.68;;;26.90;92.40;;;;;;5043389;28;20258;-33
2022/06/23 07:23:21;;;;;;;9.65;4.75;;;27.00;92.80;;;;;;5048814;28;20222;-33
2022/06/23 07:26:01;;;;;;;8.07;4.88;;;27.10;92.60;;;;;;5046474;28;20303;-34
2022/06/23 07:28:44;;;;;;;7.97;4.47;;;27.10;92.60;;;;;;5048117;28;20575;-33
2022/06/23 07:31:19;;;;;;;8.38;4.43;;;27.20;92.60;;;;;;5042898;28;20216;-37
2022/06/23 07:34:04;;;;;;;11.02;4.85;;;27.20;92.60;;;;;;5047817;28;20615;-37
2022/06/23 07:36:42;;;;;;;9.25;4.95;;;27.30;92.80;;;;;;5047847;28;20240;-37
2022/06/23 07:39:39;;;;;;;7.53;4.60;;;27.30;92.90;;;;;;5046127;28;20295;-37
2022/06/23 07:42:16;;;;;;;8.00;4.35;;;27.40;92.90;;;;;;5042884;28;20857;-37
2022/06/23 07:44:58;;;;;;;10.32;4.45;;;27.40;93.10;;;;;;5031729;28;20228;-38
2022/06/23 07:47:28;;;;;;;9.20;4.57;;;27.50;93.00;;;;;;5047970;28;20200;-37
2022/06/23 07:49:58;;;;;;;10.63;4.30;;;27.60;93.10;;;;;;5043071;28;20311;-37
2022/06/23 07:52:26;;;;;;;8.93;4.20;;;27.60;93.20;;;;;;5046926;28;20381;-37
2022/06/23 07:54:56;;;;;;;8.57;4.30;;;27.70;93.10;;;;;;5041925;28;20315;-34
2022/06/23 07:57:29;;;;;;;7.78;4.43;;;27.70;93.20;;;;;;5044885;28;20196;-34
2022/06/23 08:00:02;;;;;;;9.15;4.78;;;27.80;93.30;;;;;;5032352;28;20208;-34
2022/06/23 08:02:41;;;;;;;8.38;5.45;;;27.90;93.50;;;;;;5041508;28;20295;-34
2022/06/23 08:05:17;;;;;;;8.27;4.88;;;27.90;93.40;;;;;;5032726;28;20231;-34
2022/06/23 08:07:46;;;;;;;8.07;4.78;;;28.00;93.60;;;;;;5044947;28;20203;-34
2022/06/23 08:10:27;;;;;;;11.50;4.55;;;28.00;93.40;;;;;;5043589;28;20221;-34
2022/06/23 08:13:15;;;;;;;8.98;4.55;;;28.10;93.60;;;;;;5046574;28;20215;-34
2022/06/23 08:18:59;;;;;;;9.13;5.00;;;28.10;93.60;;;;;;5046922;28;20212;-33
2022/06/23 08:21:33;;;;;;;16.67;6.55;;;28.10;93.60;;;;;;5043788;28;20529;-34
2022/06/23 08:24:07;;;;;;;8.00;4.65;;;28.10;93.60;;;;;;5037170;28;20248;-37
2022/06/23 08:26:39;;;;;;;11.85;5.10;;;28.10;93.70;;;;;;5039532;28;20208;-39
2022/06/23 08:29:11;;;;;;;8.35;4.85;;;28.00;93.60;;;;;;5044209;28;20736;-38
2022/06/23 08:31:39;;;;;;;18.80;6.03;;;28.00;93.70;;;;;;5046954;28;20318;-37
2022/06/23 08:34:28;;;;;;;10.88;5.13;;;28.00;93.80;;;;;;5042571;28;20265;-37
2022/06/23 08:37:04;;;;;;;9.20;4.85;;;28.00;93.70;;;;;;5077958;28;20651;-37
2022/06/23 08:39:42;;;;;;;7.35;4.78;;;28.00;93.80;;;;;;5044344;28;20410;-38
2022/06/23 08:42:16;;;;;;;10.07;4.40;;;28.00;94.00;;;;;;5046239;28;20737;-37
2022/06/23 08:45:01;;;;;;;6.68;4.18;;;28.00;93.80;;;;;;5044429;28;20211;-37
2022/06/23 08:48:01;;;;;;;11.05;4.63;;;28.10;93.90;;;;;;5056797;28;20244;-37
2022/06/23 08:50:38;;;;;;;8.30;4.60;;;28.10;93.80;;;;;;5040490;28;20215;-39
2022/06/23 08:53:29;;;;;;;8.65;5.25;;;28.10;94.00;;;;;;5042494;28;20232;-37
2022/06/23 08:56:07;;;;;;;8.73;4.70;;;28.20;94.20;;;;;;5040177;28;20259;-39
2022/06/23 08:58:51;;;;;;;10.07;4.88;;;28.20;94.10;;;;;;5045651;28;20257;-37
2022/06/23 09:01:56;;;;;;;9.90;4.95;;;28.20;94.10;;;;;;5044585;28;20319;-42
2022/06/23 09:04:41;;;;;;;7.63;4.95;;;28.30;94.30;;;;;;5008614;28;20266;-37
2022/06/23 09:07:50;;;;;;;10.32;5.30;;;28.30;94.40;;;;;;5045255;28;20300;-38
2022/06/23 09:10:52;;;;;;;10.05;5.10;;;28.40;94.50;;;;;;5031777;28;20301;-39
2022/06/23 09:13:40;;;;;;;6.72;4.50;;;28.40;94.50;;;;;;5006184;28;20243;-39
2022/06/23 09:16:19;;;;;;;7.43;4.72;;;28.50;94.40;;;;;;5046542;28;20293;-39
2022/06/23 09:18:47;;;;;;;8.70;4.60;;;28.50;94.30;;;;;;5050461;28;20219;-39
2022/06/23 09:21:47;;;;;;;7.57;4.22;;;28.50;94.30;;;;;;5051359;28;20216;-39
2022/06/23 09:24:25;;;;;;;15.25;5.00;;;28.60;94.40;;;;;;5045605;28;21092;-39
2022/06/23 09:26:58;;;;;;;9.38;4.70;;;28.60;94.30;;;;;;5047631;28;20211;-39
2022/06/23 09:30:06;;;;;;;8.63;4.47;;;28.60;94.30;;;;;;5049919;28;20314;-39
2022/06/23 09:32:44;;;;;;;5.53;4.03;;;28.70;94.40;;;;;;5043045;28;20316;-39
2022/06/23 09:35:33;;;;;;;6.68;4.00;;;28.70;94.30;;;;;;5044730;28;20223;-39
2022/06/23 09:38:11;;;;;;;8.38;3.45;;;28.70;94.30;;;;;;5042650;28;20231;-39
2022/06/23 09:40:50;;;;;;;7.32;3.67;;;28.80;94.40;;;;;;5050776;28;20277;-39
2022/06/23 09:43:39;;;;;;;7.82;4.50;;;28.80;94.40;;;;;;5054354;28;20208;-39
2022/06/23 09:46:28;;;;;;;7.65;4.05;;;28.90;94.60;;;;;;5046774;28;20189;-38
2022/06/23 09:49:35;;;;;;;9.45;4.05;;;28.90;94.50;;;;;;5043373;28;20621;-39
2022/06/23 09:52:15;;;;;;;7.40;3.47;;;29.00;94.60;;;;;;5039796;28;20259;-39
2022/06/23 09:54:48;;;;;;;5.90;3.38;;;29.10;94.60;;;;;;5040333;28;20208;-39
2022/06/23 09:57:21;;;;;;;7.05;3.70;;;29.20;94.50;;;;;;5047917;28;20659;-39
2022/06/23 10:00:05;;;;;;;8.82;3.75;;;29.20;94.50;;;;;;5045084;28;20231;-35
2022/06/23 10:02:39;;;;;;;5.70;3.05;;;29.30;94.60;;;;;;5048874;28;20212;-35
2022/06/23 10:05:30;;;;;;;6.75;3.70;;;29.30;94.50;;;;;;5050957;28;20652;-35
2022/06/23 10:08:20;;;;;;;6.07;3.35;;;29.30;94.50;;;;;;5021742;28;20343;-35
2022/06/23 10:10:53;;;;;;;5.88;3.92;;;29.40;94.50;;;;;;5049257;28;20220;-35
2022/06/23 10:13:33;;;;;;;8.50;3.67;;;29.40;94.60;;;;;;5047688;28;20220;-35
2022/06/23 10:16:21;;;;;;;6.85;3.25;;;29.50;94.70;;;;;;5048402;28;20196;-35
2022/06/23 10:19:12;;;;;;;8.95;3.92;;;29.50;94.60;;;;;;5046884;28;20262;-35
2022/06/23 10:21:50;;;;;;;7.20;3.70;;;29.60;94.60;;;;;;5074742;28;20192;-35
2022/06/23 10:24:28;;;;;;;8.45;3.70;;;29.70;94.60;;;;;;5043311;28;20200;-36
2022/06/23 10:27:22;;;;;;;8.43;4.03;;;29.70;94.70;;;;;;5035933;28;20283;-35
2022/06/23 10:30:03;;;;;;;6.03;3.83;;;29.80;94.70;;;;;;5044750;28;20702;-35
2022/06/23 10:33:34;;;;;;;5.53;3.85;;;29.90;94.70;;;;;;5046350;28;20781;-35
2022/06/23 10:36:10;;;;;;;7.35;3.85;;;30.00;94.70;;;;;;5077022;28;20303;-35
2022/06/23 10:39:20;;;;;;;5.25;3.38;;;30.00;94.60;;;;;;5040898;28;20262;-39
2022/06/23 10:42:18;;;;;;;7.15;3.33;;;30.10;94.70;;;;;;5039785;28;20300;-39
2022/06/23 10:45:26;;;;;;;9.73;3.70;;;30.10;94.70;;;;;;5037771;28;20817;-39
2022/06/23 10:47:59;;;;;;;5.93;3.20;;;30.10;94.60;;;;;;5061727;28;20277;-35
2022/06/23 10:50:40;;;;;;;5.40;3.17;;;30.20;94.60;;;;;;5041073;28;20694;-35
2022/06/23 10:53:31;;;;;;;14.32;4.50;;;30.20;94.60;;;;;;5046154;28;20242;-35
2022/06/23 10:56:29;;;;;;;5.85;3.40;;;30.30;94.60;;;;;;5046350;28;20720;-35
2022/06/23 10:59:08;;;;;;;6.30;3.95;;;30.30;94.50;;;;;;5044744;28;20219;-35
2022/06/23 11:01:44;;;;;;;7.82;3.80;;;30.40;94.60;;;;;;5047563;28;20204;-35
2022/06/23 11:04:41;;;;;;;6.30;3.10;;;30.40;94.60;;;;;;5045156;28;20216;-35
2022/06/23 11:07:26;;;;;;;6.38;3.53;;;30.50;94.60;;;;;;5041299;28;20358;-35
2022/06/23 11:10:07;;;;;;;8.68;3.95;;;30.50;94.60;;;;;;5043535;28;20679;-35
2022/06/23 11:13:01;;;;;;;8.25;3.22;;;30.60;94.60;;;;;;5043558;28;20224;-35
2022/06/23 11:15:56;;;;;;;10.32;3.58;;;30.60;94.50;;;;;;5045221;28;20227;-35
2022/06/23 11:18:48;;;;;;;10.25;3.03;;;30.60;94.50;;;;;;5041546;28;20331;-35
2022/06/23 11:21:25;;;;;;;6.60;2.75;;;30.70;94.40;;;;;;5044488;28;20210;-35
2022/06/23 11:24:17;;;;;;;5.10;2.65;;;30.70;94.40;;;;;;5046963;28;20204;-35
2022/06/23 11:26:45;;;;;;;5.35;2.70;;;30.70;94.40;;;;;;5049394;28;20229;-35
2022/06/23 11:29:33;;;;;;;5.50;2.38;;;30.70;94.30;;;;;;5040309;28;20200;-35
2022/06/23 11:32:27;;;;;;;6.63;2.33;;;30.70;94.20;;;;;;5040436;28;20226;-35
2022/06/23 11:35:36;;;;;;;3.63;2.35;;;30.70;93.90;;;;;;5037443;28;20196;-35
2022/06/23 11:38:45;;;;;;;6.38;2.40;;;30.70;93.90;;;;;;5001429;28;20633;-38
2022/06/23 11:41:45;;;;;;;5.13;2.30;;;30.70;93.70;;;;;;4999902;28;20202;-39
2022/06/23 11:44:37;;;;;;;5.03;2.90;;;30.70;93.80;;;;;;5044227;28;20205;-39
2022/06/23 11:47:50;;;;;;;5.13;2.85;;;30.70;93.80;;;;;;5048405;28;20211;-39
2022/06/23 11:50:49;;;;;;;4.75;2.63;;;30.70;93.70;;;;;;5042583;28;20235;-39
2022/06/23 11:53:24;;;;;;;4.65;2.42;;;30.70;93.80;;;;;;5044142;28;20240;-39
2022/06/23 11:56:11;;;;;;;4.93;2.58;;;30.70;93.80;;;;;;5046316;28;20705;-38
2022/06/23 11:58:58;;;;;;;4.28;2.33;;;30.70;93.70;;;;;;5047248;28;20491;-41
2022/06/23 12:01:26;;;;;;;5.10;2.53;;;30.70;93.60;;;;;;5048632;28;20572;-39
2022/06/23 12:03:56;;;;;;;6.80;2.45;;;30.80;93.80;;;;;;5044762;28;20300;-39
2022/06/23 12:06:56;;;;;;;10.50;2.78;;;30.80;93.60;;;;;;5043519;28;20215;-39
2022/06/23 12:09:26;;;;;;;11.75;2.65;;;30.90;93.50;;;;;;5043102;28;20262;-39
2022/06/23 12:11:58;;;;;;;7.72;3.05;;;30.90;93.80;;;;;;5046704;28;20215;-39
2022/06/23 12:14:26;;;;;;;9.43;2.20;;;30.90;93.50;;;;;;5046672;28;20710;-39
2022/06/23 12:17:05;;;;;;;8.48;2.75;;;30.90;93.50;;;;;;5047607;28;20200;-39
2022/06/23 12:20:06;;;;;;;5.18;2.35;;;30.90;93.50;;;;;;5048245;28;20653;-39
2022/06/23 12:22:41;;;;;;;4.32;2.10;;;30.90;93.60;;;;;;5050011;28;20212;-39
2022/06/23 12:25:17;;;;;;;5.53;2.67;;;31.00;93.60;;;;;;5044835;28;20561;-39
2022/06/23 12:27:47;;;;;;;9.45;3.20;;;31.00;93.60;;;;;;5046563;28;20219;-39
2022/06/23 12:30:19;;;;;;;10.88;3.22;;;31.10;93.70;;;;;;5046706;28;20201;-39
2022/06/23 12:32:57;;;;;;;10.10;2.65;;;31.10;93.60;;;;;;5045546;28;20220;-39
2022/06/23 12:35:44;;;;;;;5.57;2.60;;;31.10;93.60;;;;;;5050687;28;20294;-39
2022/06/23 12:38:35;;;;;;;4.10;2.33;;;31.10;93.30;;;;;;5046617;28;20232;-39
2022/06/23 12:41:13;;;;;;;7.70;3.13;;;31.10;93.50;;;;;;5042544;28;20239;-37
2022/06/23 12:43:49;;;;;;;6.45;2.10;;;31.10;93.50;;;;;;5040008;28;20196;-39
2022/06/23 12:46:28;;;;;;;5.78;2.67;;;31.10;93.30;;;;;;5045333;28;20266;-34
2022/06/23 12:49:18;;;;;;;3.85;1.92;;;31.20;93.50;;;;;;5044619;28;20829;-34
2022/06/23 12:52:06;;;;;;;3.30;2.17;;;31.20;93.40;;;;;;5045314;28;20248;-34
2022/06/23 12:55:24;;;;;;;4.57;2.45;;;31.30;93.40;;;;;;5043672;28;20262;-34
2022/06/23 12:57:54;;;;;;;5.85;2.25;;;31.30;93.50;;;;;;5015835;28;20657;-34
2022/06/23 13:01:00;;;;;;;8.40;2.47;;;31.30;93.30;;;;;;5048755;28;20216;-34
2022/06/23 13:03:46;;;;;;;7.28;2.67;;;31.30;93.00;;;;;;5047023;28;20536;-34
2022/06/23 13:06:16;;;;;;;4.97;2.95;;;31.40;93.20;;;;;;5041547;28;20297;-34
2022/06/23 13:08:57;;;;;;;13.13;3.58;;;31.30;93.20;;;;;;5038220;28;20291;-34
2022/06/23 13:11:59;;;;;;;7.07;3.08;;;31.40;93.30;;;;;;5040132;28;20251;-34
2022/06/23 13:14:41;;;;;;;10.65;2.90;;;31.40;93.30;;;;;;5020273;28;20667;-40
2022/06/23 13:17:49;;;;;;;15.80;2.80;;;31.40;93.30;;;;;;5045321;28;20628;-39
2022/06/23 13:20:19;;;;;;;6.85;2.45;;;31.40;93.10;;;;;;5043763;28;20606;-39
2022/06/23 13:22:54;;;;;;;5.28;2.10;;;31.40;93.20;;;;;;5044910;28;20212;-39
2022/06/23 13:25:27;;;;;;;5.00;2.20;;;31.40;93.10;;;;;;5036940;28;20670;-38
2022/06/23 13:27:57;;;;;;;2.47;1.70;;;31.40;93.00;;;;;;5041533;28;20214;-39
2022/06/23 13:31:00;;;;;;;4.22;1.83;;;31.40;93.00;;;;;;5042151;28;20224;-39
2022/06/23 13:33:40;;;;;;;3.40;1.75;;;31.50;93.00;;;;;;5043851;28;20227;-40
2022/06/23 13:36:39;;;;;;;21.80;4.43;;;31.40;92.70;;;;;;5038850;28;21002;-39
2022/06/23 13:39:28;;;;;;;12.20;3.17;;;31.40;92.70;;;;;;5044940;28;20298;-39
2022/06/23 13:42:05;;;;;;;4.32;1.92;;;31.40;92.20;;;;;;5043743;28;20204;-39
2022/06/23 13:44:38;;;;;;;8.48;2.20;;;31.50;92.40;;;;;;5042171;28;20576;-39
2022/06/23 13:47:14;;;;;;;5.57;1.88;;;31.50;92.30;;;;;;5035417;28;20238;-38
2022/06/23 13:50:00;;;;;;;2.45;1.42;;;31.50;92.30;;;;;;5044459;28;20308;-38
2022/06/23 13:52:46;;;;;;;2.30;1.65;;;31.50;92.30;;;;;;5040633;28;20219;-38
2022/06/23 13:55:21;;;;;;;5.60;1.88;;;31.50;92.40;;;;;;5044400;28;20273;-38
2022/06/23 13:58:04;;;;;;;4.35;1.73;;;31.60;92.50;;;;;;5036573;28;20261;-38
2022/06/23 14:00:41;;;;;;;3.80;2.00;;;31.60;92.50;;;;;;5038082;28;20619;-39
2022/06/23 14:03:19;;;;;;;4.88;1.73;;;31.70;92.60;;;;;;5062177;28;20200;-39
2022/06/23 14:06:16;;;;;;;6.43;2.20;;;31.80;92.60;;;;;;5048104;28;20832;-39
2022/06/23 14:08:51;;;;;;;6.25;2.65;;;31.80;92.70;;;;;;5045861;28;20215;-39
2022/06/23 14:12:05;;;;;;;4.50;2.35;;;31.90;92.80;;;;;;5044057;28;20196;-39
2022/06/23 14:14:45;;;;;;;5.20;1.90;;;32.00;92.70;;;;;;5045414;28;20239;-40
2022/06/23 14:17:29;;;;;;;3.70;2.50;;;32.00;92.70;;;;;;5040130;28;20563;-39